createdAt,value
2022-12-18T00:01:35.480Z,4.38
2022-12-18T00:04:06.322Z,4.43
2022-12-18T00:06:35.095Z,4.39
2022-12-18T00:09:04.197Z,4.36
2022-12-18T00:11:33.080Z,4.37
2022-12-18T00:14:00.809Z,4.54
2022-12-18T00:16:30.904Z,4.48
2022-12-18T00:18:58.856Z,4.61
2022-12-18T00:21:27.882Z,4.90
2022-12-18T00:23:55.616Z,4.61
2022-12-18T00:26:25.379Z,4.74
2022-12-18T00:29:00.761Z,4.92
2022-12-18T00:31:28.876Z,4.95
2022-12-18T00:33:57.375Z,5.15
2022-12-18T00:36:30.636Z,4.94
2022-12-18T00:38:59.423Z,5.04
2022-12-18T00:41:46.372Z,4.98
2022-12-18T00:44:15.961Z,4.85
2022-12-18T00:46:44.959Z,4.84
2022-12-18T00:49:12.528Z,4.82
2022-12-18T00:51:40.730Z,4.76
2022-12-18T00:54:08.283Z,4.77
2022-12-18T00:56:48.370Z,4.72
2022-12-18T00:59:19.581Z,4.81
2022-12-18T01:01:47.896Z,5.20
2022-12-18T01:04:15.614Z,5.26
2022-12-18T01:06:46.363Z,5.13
2022-12-18T01:09:13.959Z,4.99
2022-12-18T01:11:41.839Z,4.97
2022-12-18T01:14:09.986Z,5.01
2022-12-18T01:16:38.625Z,4.99
2022-12-18T01:19:06.039Z,5.13
2022-12-18T01:21:34.039Z,5.00
2022-12-18T01:24:05.757Z,5.11
2022-12-18T01:26:33.557Z,5.17
2022-12-18T01:29:01.011Z,5.24
2022-12-18T01:31:33.841Z,4.96
2022-12-18T01:34:05.398Z,5.15
2022-12-18T01:36:35.958Z,5.00
2022-12-18T01:39:14.892Z,5.06
2022-12-18T01:42:01.891Z,5.12
2022-12-18T01:44:58.995Z,5.43
2022-12-18T01:47:50.497Z,5.40
2022-12-18T01:50:19.138Z,5.43
2022-12-18T01:52:50.972Z,5.24
2022-12-18T01:55:21.818Z,5.21
2022-12-18T01:57:52.663Z,4.95
2022-12-18T02:00:21.959Z,4.84
2022-12-18T02:02:49.978Z,4.90
2022-12-18T02:05:34.356Z,5.13
2022-12-18T02:08:17.831Z,5.12
2022-12-18T02:10:49.243Z,5.15
2022-12-18T02:13:57.106Z,4.95
2022-12-18T02:16:34.496Z,4.96
2022-12-18T02:19:17.553Z,5.19
2022-12-18T02:21:55.937Z,5.29
2022-12-18T02:24:36.329Z,4.85
2022-12-18T02:27:09.398Z,4.86
2022-12-18T02:29:57.563Z,4.91
2022-12-18T02:32:34.843Z,4.93
2022-12-18T02:35:04.958Z,5.00
2022-12-18T02:37:35.055Z,4.88
2022-12-18T02:40:05.960Z,4.81
2022-12-18T02:42:36.098Z,4.88
2022-12-18T02:45:06.980Z,4.91
2022-12-18T02:47:41.511Z,5.07
2022-12-18T02:50:16.008Z,4.95
2022-12-18T02:52:58.736Z,5.04
2022-12-18T02:55:31.970Z,4.99
2022-12-18T02:58:13.474Z,4.94
2022-12-18T03:01:00.292Z,5.01
2022-12-18T03:03:43.987Z,5.26
2022-12-18T03:06:19.378Z,4.98
2022-12-18T03:08:55.647Z,5.16
2022-12-18T03:11:46.387Z,4.98
2022-12-18T03:14:17.559Z,4.96
2022-12-18T03:16:51.854Z,5.15
2022-12-18T03:19:26.811Z,5.07
2022-12-18T03:21:59.503Z,5.10
2022-12-18T03:24:31.179Z,4.99
2022-12-18T03:27:03.498Z,4.91
2022-12-18T03:29:41.426Z,4.97
2022-12-18T03:32:19.673Z,4.69
2022-12-18T03:34:50.690Z,4.58
2022-12-18T03:37:19.952Z,4.48
2022-12-18T03:39:48.870Z,4.55
2022-12-18T03:42:37.480Z,4.56
2022-12-18T03:45:55.423Z,4.41
2022-12-18T03:48:36.441Z,4.26
2022-12-18T03:51:27.737Z,4.30
2022-12-18T03:54:05.051Z,4.35
2022-12-18T03:56:43.094Z,4.27
2022-12-18T03:59:16.062Z,4.10
2022-12-18T04:01:48.965Z,4.07
2022-12-18T04:04:19.680Z,4.07
2022-12-18T04:06:50.903Z,3.97
2022-12-18T04:09:21.556Z,3.96
2022-12-18T04:11:50.151Z,3.90
2022-12-18T04:14:18.426Z,3.94
2022-12-18T04:16:49.162Z,4.05
2022-12-18T04:19:18.699Z,4.00
2022-12-18T04:21:48.871Z,4.16
2022-12-18T04:24:16.750Z,4.33
2022-12-18T04:26:53.311Z,4.26
2022-12-18T04:29:26.877Z,4.29
2022-12-18T04:31:55.247Z,4.32
2022-12-18T04:34:23.955Z,4.33
2022-12-18T04:36:54.107Z,4.55
2022-12-18T04:39:23.186Z,4.26
2022-12-18T04:41:52.703Z,4.12
2022-12-18T04:44:19.975Z,4.11
2022-12-18T04:46:47.373Z,4.07
2022-12-18T04:49:15.440Z,4.17
2022-12-18T04:51:42.875Z,4.03
2022-12-18T04:54:10.588Z,4.22
2022-12-18T04:56:37.852Z,3.95
2022-12-18T04:59:05.820Z,4.24
2022-12-18T05:01:35.128Z,4.01
2022-12-18T05:04:03.846Z,3.96
2022-12-18T05:06:31.589Z,3.86
2022-12-18T05:08:59.316Z,3.89
2022-12-18T05:11:26.842Z,3.95
2022-12-18T05:13:54.050Z,3.79
2022-12-18T05:16:21.392Z,3.81
2022-12-18T05:18:48.791Z,4.00
2022-12-18T05:21:17.923Z,3.90
2022-12-18T05:23:45.188Z,4.18
2022-12-18T05:26:17.761Z,4.08
2022-12-18T05:28:45.981Z,3.85
2022-12-18T05:31:13.963Z,3.93
2022-12-18T05:33:41.826Z,3.83
2022-12-18T05:36:10.719Z,3.77
2022-12-18T05:38:40.503Z,3.84
2022-12-18T05:41:09.363Z,3.78
2022-12-18T05:43:39.023Z,3.83
2022-12-18T05:46:14.223Z,3.95
2022-12-18T05:48:42.539Z,3.70
2022-12-18T05:51:15.783Z,3.54
2022-12-18T05:53:44.246Z,3.52
2022-12-18T05:56:17.487Z,3.50
2022-12-18T05:58:45.342Z,3.46
2022-12-18T06:01:17.002Z,3.49
2022-12-18T06:03:44.978Z,3.49
2022-12-18T06:06:24.459Z,3.49
2022-12-18T06:08:52.938Z,3.54
2022-12-18T06:11:25.506Z,3.54
2022-12-18T06:13:59.093Z,3.55
2022-12-18T06:16:28.135Z,3.63
2022-12-18T06:18:59.867Z,3.67
2022-12-18T06:21:28.355Z,3.67
2022-12-18T06:23:55.919Z,3.53
2022-12-18T06:26:28.016Z,3.69
2022-12-18T06:28:56.126Z,3.60
2022-12-18T06:31:23.936Z,3.67
2022-12-18T06:33:51.310Z,3.70
2022-12-18T06:36:18.700Z,3.56
2022-12-18T06:38:46.145Z,3.58
2022-12-18T06:41:16.107Z,3.63
2022-12-18T06:43:44.807Z,3.56
2022-12-18T06:46:13.193Z,3.45
2022-12-18T06:48:41.374Z,3.45
2022-12-18T06:51:08.759Z,3.41
2022-12-18T06:53:36.069Z,3.64
2022-12-18T06:56:09.820Z,3.67
2022-12-18T06:58:40.042Z,3.57
2022-12-18T07:01:11.720Z,3.69
2022-12-18T07:03:41.502Z,3.54
2022-12-18T07:06:20.606Z,3.34
2022-12-18T07:08:48.962Z,3.33
2022-12-18T07:11:17.863Z,3.51
2022-12-18T07:13:46.177Z,3.65
2022-12-18T07:16:24.701Z,3.59
2022-12-18T07:18:55.177Z,3.81
2022-12-18T07:21:24.772Z,3.86
2022-12-18T07:23:52.304Z,3.69
2022-12-18T07:26:22.606Z,3.51
2022-12-18T07:28:50.440Z,3.53
2022-12-18T07:31:23.136Z,3.34
2022-12-18T07:33:51.714Z,3.19
2022-12-18T07:36:19.468Z,3.23
2022-12-18T07:38:50.932Z,3.40
2022-12-18T07:41:19.514Z,3.42
2022-12-18T07:43:47.801Z,3.54
2022-12-18T07:46:17.004Z,3.58
2022-12-18T07:48:46.247Z,3.70
2022-12-18T07:51:18.461Z,3.75
2022-12-18T07:53:45.833Z,3.68
2022-12-18T07:56:31.191Z,3.72
2022-12-18T07:59:00.071Z,4.02
2022-12-18T08:01:30.431Z,3.77
2022-12-18T08:03:59.072Z,3.68
2022-12-18T08:06:27.300Z,3.98
2022-12-18T08:08:56.097Z,3.96
2022-12-18T08:11:25.509Z,4.04
2022-12-18T08:13:54.044Z,3.97
2022-12-18T08:16:22.669Z,3.95
2022-12-18T08:18:50.923Z,4.09
2022-12-18T08:21:29.551Z,3.99
2022-12-18T08:24:01.858Z,4.06
2022-12-18T08:26:31.647Z,4.43
2022-12-18T08:29:00.587Z,4.58
2022-12-18T08:31:30.423Z,4.36
2022-12-18T08:33:58.347Z,4.31
2022-12-18T08:36:26.053Z,4.38
2022-12-18T08:38:54.869Z,4.42
2022-12-18T08:41:22.843Z,4.52
2022-12-18T08:44:09.280Z,4.62
2022-12-18T08:46:39.366Z,4.22
2022-12-18T08:49:08.014Z,4.47
2022-12-18T08:51:35.927Z,4.25
2022-12-18T08:54:03.400Z,4.58
2022-12-18T08:56:32.034Z,4.58
2022-12-18T08:58:59.628Z,4.46
2022-12-18T09:01:27.303Z,4.18
2022-12-18T09:03:54.771Z,4.47
2022-12-18T09:06:23.907Z,4.85
2022-12-18T09:08:51.653Z,4.64
2022-12-18T09:11:27.763Z,4.80
2022-12-18T09:13:56.807Z,4.91
2022-12-18T09:16:30.344Z,4.51
2022-12-18T09:19:00.684Z,4.62
2022-12-18T09:21:31.660Z,4.70
2022-12-18T09:24:01.996Z,5.05
2022-12-18T09:26:29.563Z,5.59
2022-12-18T09:28:57.166Z,5.76
2022-12-18T09:31:25.744Z,5.79
2022-12-18T09:33:53.139Z,5.69
2022-12-18T09:36:21.065Z,5.09
2022-12-18T09:38:49.191Z,5.11
2022-12-18T09:41:37.430Z,5.06
2022-12-18T09:44:10.999Z,5.31
2022-12-18T09:46:45.295Z,4.89
2022-12-18T09:49:18.852Z,4.92
2022-12-18T09:51:55.443Z,5.27
2022-12-18T09:54:34.070Z,5.25
2022-12-18T09:57:01.551Z,5.33
2022-12-18T09:59:37.256Z,5.40
2022-12-18T10:02:15.812Z,5.29
2022-12-18T10:04:43.823Z,5.15
2022-12-18T10:07:22.380Z,5.01
2022-12-18T10:10:01.847Z,5.07
2022-12-18T10:12:40.105Z,5.16
2022-12-18T10:15:13.641Z,5.10
2022-12-18T10:17:59.271Z,5.26
2022-12-18T10:20:46.338Z,5.45
2022-12-18T10:23:42.473Z,5.22
2022-12-18T10:26:13.818Z,5.11
2022-12-18T10:28:43.379Z,5.23
2022-12-18T10:31:38.062Z,5.26
2022-12-18T10:34:05.852Z,5.28
2022-12-18T10:36:33.136Z,5.38
2022-12-18T10:39:23.388Z,5.16
2022-12-18T10:41:50.847Z,5.37
2022-12-18T10:44:26.761Z,5.90
2022-12-18T10:47:06.167Z,5.61
2022-12-18T10:49:36.952Z,5.40
2022-12-18T10:52:16.224Z,5.79
2022-12-18T10:54:50.873Z,5.62
2022-12-18T10:57:41.398Z,5.93
2022-12-18T11:00:23.387Z,5.98
2022-12-18T11:02:51.360Z,5.78
2022-12-18T11:05:34.946Z,5.67
2022-12-18T11:08:02.474Z,5.84
2022-12-18T11:10:33.662Z,5.56
2022-12-18T11:13:21.284Z,5.86
2022-12-18T11:15:49.767Z,5.76
2022-12-18T11:21:52.148Z,6.06
2022-12-18T11:24:40.822Z,5.89
2022-12-18T11:27:19.410Z,6.02
2022-12-18T11:29:47.235Z,5.91
2022-12-18T11:32:33.027Z,5.92
2022-12-18T11:35:38.595Z,5.83
2022-12-18T11:38:18.345Z,5.44
2022-12-18T11:40:51.412Z,5.49
2022-12-18T11:43:27.131Z,5.59
2022-12-18T11:46:00.195Z,5.56
2022-12-18T11:48:55.039Z,6.03
2022-12-18T11:51:33.369Z,5.67
2022-12-18T11:54:02.389Z,5.78
2022-12-18T11:56:51.282Z,5.44
2022-12-18T12:00:00.226Z,6.05
2022-12-18T12:02:58.246Z,5.57
2022-12-18T12:05:47.695Z,5.87
2022-12-18T12:09:02.660Z,5.41
2022-12-18T12:12:12.746Z,5.45
2022-12-18T12:14:54.893Z,5.59
2022-12-18T12:17:23.389Z,5.58
2022-12-18T12:20:00.100Z,5.54
2022-12-18T12:22:33.435Z,6.26
2022-12-18T12:25:22.911Z,6.14
2022-12-18T12:27:51.212Z,6.00
2022-12-18T12:30:52.511Z,5.87
2022-12-18T12:33:39.158Z,5.88
2022-12-18T12:36:32.647Z,6.21
2022-12-18T12:39:06.113Z,6.08
2022-12-18T12:41:54.443Z,6.10
2022-12-18T12:44:28.494Z,5.88
2022-12-18T12:47:01.702Z,5.95
2022-12-18T12:49:39.037Z,5.51
2022-12-18T12:52:33.167Z,5.91
2022-12-18T12:55:02.879Z,5.90
2022-12-18T12:58:06.695Z,6.29
2022-12-18T13:00:48.839Z,6.08
2022-12-18T13:03:40.845Z,5.73
2022-12-18T13:06:47.056Z,5.68
2022-12-18T13:09:15.290Z,5.54
2022-12-18T13:12:04.515Z,5.37
2022-12-18T13:14:39.750Z,5.34
2022-12-18T13:17:20.978Z,5.59
2022-12-18T13:20:03.448Z,5.41
2022-12-18T13:22:40.052Z,5.35
2022-12-18T13:25:37.368Z,5.69
2022-12-18T13:28:16.824Z,5.84
2022-12-18T13:30:55.875Z,6.11
2022-12-18T13:33:25.736Z,5.62
2022-12-18T13:36:28.326Z,5.23
2022-12-18T13:39:14.633Z,5.63
2022-12-18T13:41:45.594Z,5.27
2022-12-18T13:44:25.067Z,5.06
2022-12-18T13:46:53.434Z,5.18
2022-12-18T13:49:31.488Z,5.06
2022-12-18T13:51:59.442Z,5.46
2022-12-18T13:54:42.499Z,5.88
2022-12-18T13:57:55.630Z,5.82
2022-12-18T14:00:24.272Z,5.41
2022-12-18T14:02:52.599Z,5.05
2022-12-18T14:05:32.756Z,4.93
2022-12-18T14:08:11.144Z,5.01
2022-12-18T14:10:49.772Z,4.85
2022-12-18T14:13:30.259Z,5.14
2022-12-18T14:15:59.268Z,5.36
2022-12-18T14:18:51.670Z,5.67
2022-12-18T14:21:24.396Z,5.32
2022-12-18T14:24:05.671Z,5.07
2022-12-18T14:26:34.561Z,5.33
2022-12-18T14:29:20.445Z,5.06
2022-12-18T14:32:17.378Z,4.98
2022-12-18T14:34:46.564Z,4.89
2022-12-18T14:37:17.229Z,5.19
2022-12-18T14:39:55.966Z,4.94
2022-12-18T14:42:23.662Z,5.17
2022-12-18T14:45:13.047Z,5.37
2022-12-18T14:47:38.487Z,4.82
2022-12-18T14:50:15.110Z,4.77
2022-12-18T14:52:42.685Z,5.21
2022-12-18T14:55:20.657Z,4.87
2022-12-18T14:57:53.704Z,4.80
2022-12-18T15:00:23.925Z,5.12
2022-12-18T15:02:55.458Z,5.22
2022-12-18T15:05:32.325Z,5.50
2022-12-18T15:08:03.026Z,5.24
2022-12-18T15:10:33.783Z,5.26
2022-12-18T15:13:02.496Z,5.50
2022-12-18T15:15:39.043Z,5.46
2022-12-18T15:18:09.753Z,4.78
2022-12-18T15:21:00.589Z,4.53
2022-12-18T15:23:47.316Z,4.48
2022-12-18T15:26:17.086Z,4.57
2022-12-18T15:28:53.742Z,4.50
2022-12-18T15:31:31.199Z,4.71
2022-12-18T15:34:00.045Z,4.85
2022-12-18T15:36:31.305Z,4.73
2022-12-18T15:39:04.547Z,4.87
2022-12-18T15:41:35.260Z,4.81
2022-12-18T15:44:16.802Z,4.50
2022-12-18T15:46:44.541Z,4.60
2022-12-18T15:49:11.844Z,4.56
2022-12-18T15:51:40.110Z,4.92
2022-12-18T15:54:13.902Z,5.19
2022-12-18T15:57:00.473Z,4.99
2022-12-18T15:59:28.195Z,4.88
2022-12-18T16:01:55.969Z,4.59
2022-12-18T16:04:24.578Z,4.47
2022-12-18T16:07:14.477Z,4.35
2022-12-18T16:09:42.983Z,4.34
2022-12-18T16:12:20.254Z,4.62
2022-12-18T16:14:47.539Z,4.50
2022-12-18T16:17:15.644Z,4.40
2022-12-18T16:19:43.013Z,4.47
2022-12-18T16:22:31.517Z,4.53
2022-12-18T16:24:59.073Z,4.53
2022-12-18T16:27:26.770Z,4.53
2022-12-18T16:29:54.620Z,4.54
2022-12-18T16:32:23.438Z,4.48
2022-12-18T16:34:50.960Z,4.59
2022-12-18T16:37:18.758Z,4.54
2022-12-18T16:39:46.103Z,4.24
2022-12-18T16:42:19.685Z,4.48
2022-12-18T16:44:49.121Z,4.76
2022-12-18T16:47:17.614Z,4.86
2022-12-18T16:49:46.181Z,4.92
2022-12-18T16:52:14.323Z,4.97
2022-12-18T16:54:41.649Z,4.92
2022-12-18T16:57:13.487Z,4.79
2022-12-18T16:59:41.011Z,4.86
2022-12-18T17:02:18.168Z,4.97
2022-12-18T17:04:54.839Z,5.00
2022-12-18T17:07:22.816Z,4.99
2022-12-18T17:09:51.186Z,4.98
2022-12-18T17:12:19.464Z,5.04
2022-12-18T17:14:47.368Z,4.96
2022-12-18T17:17:23.279Z,4.95
2022-12-18T17:19:52.608Z,5.01
2022-12-18T17:22:21.179Z,5.16
2022-12-18T17:24:48.770Z,5.03
2022-12-18T17:27:16.019Z,5.02
2022-12-18T17:29:47.735Z,5.01
2022-12-18T17:32:17.301Z,5.10
2022-12-18T17:34:45.172Z,5.05
2022-12-18T17:37:12.635Z,4.49
2022-12-18T17:39:40.099Z,4.57
2022-12-18T17:42:08.643Z,4.68
2022-12-18T17:44:38.096Z,4.74
2022-12-18T17:47:06.146Z,4.86
2022-12-18T17:49:34.071Z,4.82
2022-12-18T17:52:01.599Z,4.99
2022-12-18T17:54:28.976Z,4.98
2022-12-18T17:56:56.555Z,4.81
2022-12-18T17:59:24.343Z,4.96
2022-12-18T18:01:51.730Z,5.11
2022-12-18T18:04:19.527Z,5.22
2022-12-18T18:06:47.412Z,5.35
2022-12-18T18:09:16.018Z,5.25
2022-12-18T18:12:04.264Z,5.19
2022-12-18T18:14:31.831Z,4.99
2022-12-18T18:17:04.273Z,5.14
2022-12-18T18:19:34.228Z,5.22
2022-12-18T18:22:02.920Z,5.06
2022-12-18T18:24:30.506Z,4.87
2022-12-18T18:26:59.951Z,5.33
2022-12-18T18:29:30.293Z,5.14
2022-12-18T18:31:58.683Z,5.04
2022-12-18T18:34:31.207Z,5.14
2022-12-18T18:36:59.422Z,5.08
2022-12-18T18:39:26.998Z,4.97
2022-12-18T18:41:55.846Z,4.95
2022-12-18T18:44:26.060Z,4.83
2022-12-18T18:46:58.519Z,4.99
2022-12-18T18:49:28.351Z,4.91
2022-12-18T18:51:57.083Z,4.82
2022-12-18T18:54:25.616Z,4.81
2022-12-18T18:59:40.451Z,4.83
2022-12-18T19:02:15.877Z,5.03
2022-12-18T19:04:45.969Z,4.95
2022-12-18T19:07:25.601Z,5.12
2022-12-18T19:10:04.016Z,4.96
2022-12-18T19:12:52.809Z,4.76
2022-12-18T19:15:22.656Z,4.48
2022-12-18T19:17:49.987Z,4.16
2022-12-18T19:20:18.207Z,4.13
2022-12-18T19:22:46.092Z,4.12
2022-12-18T19:25:38.232Z,4.44
2022-12-18T19:28:09.981Z,4.57
2022-12-18T19:30:49.123Z,4.63
2022-12-18T19:33:41.971Z,4.71
2022-12-18T19:36:16.090Z,4.91
2022-12-18T19:38:45.352Z,4.81
2022-12-18T19:41:14.799Z,4.96
2022-12-18T19:43:43.545Z,4.68
2022-12-18T19:46:16.733Z,4.41
2022-12-18T19:48:45.184Z,4.06
2022-12-18T19:51:20.268Z,3.91
2022-12-18T19:53:50.541Z,4.00
2022-12-18T19:56:23.243Z,4.19
2022-12-18T19:58:51.079Z,4.09
2022-12-18T20:01:22.028Z,4.39
2022-12-18T20:03:52.685Z,4.49
2022-12-18T20:06:25.467Z,4.60
2022-12-18T20:08:54.636Z,4.55
2022-12-18T20:11:29.743Z,4.57
2022-12-18T20:13:58.559Z,4.59
2022-12-18T20:16:26.408Z,4.97
2022-12-18T20:18:54.176Z,4.91
2022-12-18T20:21:21.751Z,4.78
2022-12-18T20:23:49.146Z,4.91
2022-12-18T20:26:16.567Z,5.01
2022-12-18T20:28:44.554Z,5.11
2022-12-18T20:31:13.921Z,4.93
2022-12-18T20:33:43.091Z,5.22
2022-12-18T20:36:21.392Z,5.23
2022-12-18T20:38:58.580Z,5.48
2022-12-18T20:41:37.430Z,5.43
2022-12-18T20:44:10.966Z,5.30
2022-12-18T20:46:56.317Z,5.50
2022-12-18T20:49:25.562Z,5.33
2022-12-18T20:51:54.111Z,5.21
2022-12-18T20:54:22.273Z,5.19
2022-12-18T20:56:50.382Z,4.95
2022-12-18T20:59:17.953Z,4.87
2022-12-18T21:01:48.868Z,4.63
2022-12-18T21:04:19.157Z,4.62
2022-12-18T21:06:53.291Z,4.62
2022-12-18T21:09:23.855Z,4.56
2022-12-18T21:12:12.400Z,4.48
2022-12-18T21:14:43.042Z,4.36
2022-12-18T21:17:11.548Z,4.26
2022-12-18T21:19:39.363Z,4.26
2022-12-18T21:22:06.733Z,4.33
2022-12-18T21:24:34.696Z,4.47
2022-12-18T21:27:02.526Z,4.42
2022-12-18T21:29:30.157Z,4.22
2022-12-18T21:31:57.673Z,4.20
2022-12-18T21:34:28.159Z,4.10
2022-12-18T21:36:57.296Z,4.09
2022-12-18T21:39:26.207Z,4.35
2022-12-18T21:42:12.173Z,4.05
2022-12-18T21:44:41.873Z,3.95
2022-12-18T21:47:20.904Z,3.98
2022-12-18T21:49:49.640Z,3.98
2022-12-18T21:52:17.583Z,4.09
2022-12-18T21:54:45.675Z,3.94
2022-12-18T21:57:13.622Z,4.00
2022-12-18T21:59:43.326Z,4.22
2022-12-18T22:02:17.315Z,4.25
2022-12-18T22:04:46.104Z,4.33
2022-12-18T22:07:16.214Z,4.26
2022-12-18T22:09:43.650Z,4.37
2022-12-18T22:12:35.374Z,4.70
2022-12-18T22:15:06.359Z,4.80
2022-12-18T22:17:33.615Z,4.66
2022-12-18T22:20:01.511Z,4.80
2022-12-18T22:22:28.837Z,4.62
2022-12-18T22:24:56.110Z,4.38
2022-12-18T22:27:23.446Z,4.42
2022-12-18T22:30:06.344Z,4.06
2022-12-18T22:32:35.843Z,3.90
2022-12-18T22:35:09.447Z,4.05
2022-12-18T22:37:40.137Z,4.25
2022-12-18T22:40:08.628Z,4.25
2022-12-18T22:42:36.428Z,4.14
2022-12-18T22:45:04.066Z,4.18
2022-12-18T22:47:31.466Z,4.21
2022-12-18T22:49:59.282Z,4.33
2022-12-18T22:52:27.139Z,4.22
2022-12-18T22:54:55.140Z,4.23
2022-12-18T22:57:23.182Z,4.11
2022-12-18T22:59:51.330Z,4.36
2022-12-18T23:02:19.580Z,4.16
2022-12-18T23:04:47.750Z,4.09
2022-12-18T23:07:16.755Z,4.18
2022-12-18T23:09:44.865Z,4.03
2022-12-18T23:12:20.419Z,4.32
2022-12-18T23:14:47.876Z,4.32
2022-12-18T23:17:15.214Z,4.19
2022-12-18T23:19:48.506Z,4.36
2022-12-18T23:22:16.996Z,4.36
2022-12-18T23:24:45.443Z,4.26
2022-12-18T23:27:12.743Z,4.72
2022-12-18T23:29:40.731Z,4.41
2022-12-18T23:32:08.382Z,4.69
2022-12-18T23:34:35.751Z,4.77
2022-12-18T23:37:03.847Z,4.64
2022-12-18T23:39:31.682Z,4.27
2022-12-18T23:41:59.393Z,4.56
2022-12-18T23:44:27.130Z,4.77
2022-12-18T23:46:54.776Z,4.52
2022-12-18T23:49:22.452Z,4.54
2022-12-18T23:51:50.294Z,4.45
2022-12-18T23:54:21.822Z,4.59
2022-12-18T23:57:01.655Z,4.97
2022-12-18T23:59:29.444Z,4.71
